Carnival Splendor — 3EUS — position and weather

sailwx.info

Track history (hours):
 
Tides and Currents Weather Stations Pressure Air Temp Water Temp Dewpoint Dewpoint Depression Visibility Wind Speed Wind Dir Waves Ship Positions

Carnival Splendor

Last reported at 2015-Jul-28 08:33 UTC. Time now 2015-Aug-02 20:27 UTC.
Position N 37°25' W 072°10'.

Length 290 m; draft 8.3 m.

Type: Ship. MMSI: 372808000.

Date/timePositionNaut miles runAvg speedWind from/ knotsBaromVisibWave heightAir tempDewpointWater temp
2015-Jul-28 08:33N 37°25' W 072°10'2120.6
2015-Jul-28 07:33N 37°44' W 072°17'2120.8
2015-Jul-28 06:33N 38°05' W 072°24'2020.8
2015-Jul-28 05:34N 38°24' W 072°31'2120.6
2015-Jul-28 04:33N 38°44' W 072°38'2120.6
2015-Jul-28 03:33N 39°04' W 072°45'2120.6
2015-Jul-28 02:34N 39°24' W 072°53'2120.5
2015-Jul-28 01:33N 39°43' W 073°01'2020.4
2015-Jul-28 00:33N 39°59' W 073°18'2020.4
2015-Jul-27 23:33N 40°14' W 073°35'1818.1
2015-Jul-27 22:33N 40°28' W 073°50'1212.4
2015-Jul-27 21:34N 40°36' W 074°03'1010.2
2015-Jul-27 20:33N 40°46' W 074°00'0 0.2
2015-Jul-27 19:31N 40°46' W 073°60'0 0.0
2015-Jul-27 18:31N 40°46' W 073°60'0 0.0
2015-Jul-27 17:33N 40°46' W 073°60'0 0.0
2015-Jul-27 16:33N 40°46' W 073°60'0 0.0
2015-Jul-27 15:33N 40°46' W 073°60'0 0.0
2015-Jul-27 14:33N 40°46' W 073°60'0 0.0
2015-Jul-27 13:33N 40°46' W 073°60'0 0.0
2015-Jul-27 12:33N 40°46' W 073°60'0 0.0
2015-Jul-27 11:33N 40°46' W 073°60'1 1.0
2015-Jul-27 10:33N 40°45' W 074°01'10 9.7
2015-Jul-27 09:33N 40°36' W 074°02'1313.1
2015-Jul-27 08:33N 40°27' W 073°49'1212.5
2015-Jul-27 07:33N 40°28' W 073°33'1615.9
2015-Jul-27 06:33N 40°29' W 073°12'1616.4
2015-Jul-27 05:33N 40°31' W 072°50'1616.1
2015-Jul-27 04:33N 40°32' W 072°29'1616.1
2015-Jul-27 03:33N 40°32' W 072°08'1616.0
2015-Jul-27 02:33N 40°33' W 071°47'1616.1
2015-Jul-27 01:33N 40°33' W 071°26'1616.0
2015-Jul-27 00:33N 40°33' W 071°05'  
2015-Jul-24 12:12N 40°32' W 068°56'1116.6
2015-Jul-24 11:34N 40°28' W 069°09'1716.6
2015-Jul-24 10:33N 40°26' W 069°30'1716.8
2015-Jul-24 09:33N 40°25' W 069°53'1716.9
2015-Jul-24 08:34N 40°25' W 070°15'1716.8
2015-Jul-24 07:34N 40°25' W 070°37'1716.6
2015-Jul-24 06:34N 40°24' W 070°59'1716.6
2015-Jul-24 05:33N 40°24' W 071°20'1716.7
2015-Jul-24 04:34N 40°23' W 071°42'1716.6
2015-Jul-24 03:34N 40°23' W 072°04'1716.6
2015-Jul-24 02:34N 40°23' W 072°26'1716.6
2015-Jul-24 01:34N 40°22' W 072°48'1716.6
2015-Jul-24 00:34N 40°22' W 073°09'1716.6
2015-Jul-23 23:33N 40°24' W 073°31'1515.3
2015-Jul-23 22:34N 40°28' W 073°51'1414.3
2015-Jul-23 21:33N 40°38' W 074°03'8 8.4
2015-Jul-23 20:33N 40°46' W 073°60'0 0.0
2015-Jul-23 19:33N 40°46' W 073°60'0 0.0
2015-Jul-23 18:33N 40°46' W 073°60'0 0.0
2015-Jul-23 17:33N 40°46' W 073°60'0 0.0
2015-Jul-23 16:34N 40°46' W 073°60'0 0.0
2015-Jul-23 15:34N 40°46' W 073°60'0 0.0
2015-Jul-23 14:34N 40°46' W 073°60'0 0.0
2015-Jul-23 13:33N 40°46' W 073°60'0 0.0
2015-Jul-23 12:34N 40°46' W 073°60'0 0.0
2015-Jul-23 11:33N 40°46' W 073°60'1 1.4
2015-Jul-23 10:34N 40°45' W 074°01'1010.1
2015-Jul-23 09:34N 40°35' W 074°02'1313.1
2015-Jul-23 08:33N 40°27' W 073°48'1414.4
2015-Jul-23 07:33N 40°13' W 073°45'1918.4
2015-Jul-23 06:33N 39°54' W 073°43'1918.5
2015-Jul-23 05:32N 39°36' W 073°40'2018.3
2015-Jul-23 04:27N 39°16' W 073°37'2018.8
2015-Jul-23 03:22N 38°56' W 073°33'  
Track history (hours):
 
Tides and Currents Weather Stations Pressure Air Temp Water Temp Dewpoint Dewpoint Depression Visibility Wind Speed Wind Dir Waves Ship Positions

Carnival Splendor

Last reported at 2015-Jul-28 08:33 UTC. Time now 2015-Aug-02 20:27 UTC.
Position N 37°25' W 072°10'.

Length 290 m; draft 8.3 m.

Type: Ship. MMSI: 372808000.

Date/timePositionNaut miles runAvg speedWind from/ knotsBaromVisibWave heightAir tempDewpointWater temp
2015-Jul-28 08:33N 37°25' W 072°10'2120.6
2015-Jul-28 07:33N 37°44' W 072°17'2120.8
2015-Jul-28 06:33N 38°05' W 072°24'2020.8
2015-Jul-28 05:34N 38°24' W 072°31'2120.6
2015-Jul-28 04:33N 38°44' W 072°38'2120.6
2015-Jul-28 03:33N 39°04' W 072°45'2120.6
2015-Jul-28 02:34N 39°24' W 072°53'2120.5
2015-Jul-28 01:33N 39°43' W 073°01'2020.4
2015-Jul-28 00:33N 39°59' W 073°18'2020.4
2015-Jul-27 23:33N 40°14' W 073°35'1818.1
2015-Jul-27 22:33N 40°28' W 073°50'1212.4
2015-Jul-27 21:34N 40°36' W 074°03'1010.2
2015-Jul-27 20:33N 40°46' W 074°00'0 0.2
2015-Jul-27 19:31N 40°46' W 073°60'0 0.0
2015-Jul-27 18:31N 40°46' W 073°60'0 0.0
2015-Jul-27 17:33N 40°46' W 073°60'0 0.0
2015-Jul-27 16:33N 40°46' W 073°60'0 0.0
2015-Jul-27 15:33N 40°46' W 073°60'0 0.0
2015-Jul-27 14:33N 40°46' W 073°60'0 0.0
2015-Jul-27 13:33N 40°46' W 073°60'0 0.0
2015-Jul-27 12:33N 40°46' W 073°60'0 0.0
2015-Jul-27 11:33N 40°46' W 073°60'1 1.0
2015-Jul-27 10:33N 40°45' W 074°01'10 9.7
2015-Jul-27 09:33N 40°36' W 074°02'1313.1
2015-Jul-27 08:33N 40°27' W 073°49'1212.5
2015-Jul-27 07:33N 40°28' W 073°33'1615.9
2015-Jul-27 06:33N 40°29' W 073°12'1616.4
2015-Jul-27 05:33N 40°31' W 072°50'1616.1
2015-Jul-27 04:33N 40°32' W 072°29'1616.1
2015-Jul-27 03:33N 40°32' W 072°08'1616.0
2015-Jul-27 02:33N 40°33' W 071°47'1616.1
2015-Jul-27 01:33N 40°33' W 071°26'1616.0
2015-Jul-27 00:33N 40°33' W 071°05'  
2015-Jul-24 12:12N 40°32' W 068°56'1116.6
2015-Jul-24 11:34N 40°28' W 069°09'1716.6
2015-Jul-24 10:33N 40°26' W 069°30'1716.8
2015-Jul-24 09:33N 40°25' W 069°53'1716.9
2015-Jul-24 08:34N 40°25' W 070°15'1716.8
2015-Jul-24 07:34N 40°25' W 070°37'1716.6
2015-Jul-24 06:34N 40°24' W 070°59'1716.6
2015-Jul-24 05:33N 40°24' W 071°20'1716.7
2015-Jul-24 04:34N 40°23' W 071°42'1716.6
2015-Jul-24 03:34N 40°23' W 072°04'1716.6
2015-Jul-24 02:34N 40°23' W 072°26'1716.6
2015-Jul-24 01:34N 40°22' W 072°48'1716.6
2015-Jul-24 00:34N 40°22' W 073°09'1716.6
2015-Jul-23 23:33N 40°24' W 073°31'1515.3
2015-Jul-23 22:34N 40°28' W 073°51'1414.3
2015-Jul-23 21:33N 40°38' W 074°03'8 8.4
2015-Jul-23 20:33N 40°46' W 073°60'0 0.0
2015-Jul-23 19:33N 40°46' W 073°60'0 0.0
2015-Jul-23 18:33N 40°46' W 073°60'0 0.0
2015-Jul-23 17:33N 40°46' W 073°60'0 0.0
2015-Jul-23 16:34N 40°46' W 073°60'0 0.0
2015-Jul-23 15:34N 40°46' W 073°60'0 0.0
2015-Jul-23 14:34N 40°46' W 073°60'0 0.0
2015-Jul-23 13:33N 40°46' W 073°60'0 0.0
2015-Jul-23 12:34N 40°46' W 073°60'0 0.0
2015-Jul-23 11:33N 40°46' W 073°60'1 1.4
2015-Jul-23 10:34N 40°45' W 074°01'1010.1
2015-Jul-23 09:34N 40°35' W 074°02'1313.1
2015-Jul-23 08:33N 40°27' W 073°48'1414.4
2015-Jul-23 07:33N 40°13' W 073°45'1918.4
2015-Jul-23 06:33N 39°54' W 073°43'1918.5
2015-Jul-23 05:32N 39°36' W 073°40'2018.3
2015-Jul-23 04:27N 39°16' W 073°37'2018.8
2015-Jul-23 03:22N 38°56' W 073°33'  

Dump ship's entire track history